sensor_id;sensor_type;location;lat;lon;timestamp;P1;durP1;ratioP1;P2;durP2;ratioP2
18455;SDS011;9357;49.900;8.208;2022-08-16T00:01:25;4.90;;;4.50;;
18455;SDS011;9357;49.900;8.208;2022-08-16T00:03:06;4.67;;;4.27;;
18455;SDS011;9357;49.900;8.208;2022-08-16T00:04:45;4.60;;;4.20;;
18455;SDS011;9357;49.900;8.208;2022-08-16T00:06:21;4.50;;;4.10;;
18455;SDS011;9357;49.900;8.208;2022-08-16T00:07:54;5.10;;;4.70;;
18455;SDS011;9357;49.900;8.208;2022-08-16T00:09:27;5.07;;;4.57;;
18455;SDS011;9357;49.900;8.208;2022-08-16T00:11:00;6.67;;;4.50;;
18455;SDS011;9357;49.900;8.208;2022-08-16T00:12:32;5.30;;;4.80;;
18455;SDS011;9357;49.900;8.208;2022-08-16T00:14:08;5.13;;;4.67;;
18455;SDS011;9357;49.900;8.208;2022-08-16T00:15:43;4.80;;;4.40;;
18455;SDS011;9357;49.900;8.208;2022-08-16T00:17:22;4.90;;;4.60;;
18455;SDS011;9357;49.900;8.208;2022-08-16T00:18:56;5.17;;;4.77;;
18455;SDS011;9357;49.900;8.208;2022-08-16T00:20:28;5.60;;;5.10;;
18455;SDS011;9357;49.900;8.208;2022-08-16T00:22:02;4.90;;;4.50;;
18455;SDS011;9357;49.900;8.208;2022-08-16T00:23:43;5.40;;;4.90;;
18455;SDS011;9357;49.900;8.208;2022-08-16T00:25:17;4.87;;;4.47;;
18455;SDS011;9357;49.900;8.208;2022-08-16T00:27:11;5.20;;;4.80;;
18455;SDS011;9357;49.900;8.208;2022-08-16T00:28:44;5.30;;;4.87;;
18455;SDS011;9357;49.900;8.208;2022-08-16T00:30:26;5.77;;;5.13;;
18455;SDS011;9357;49.900;8.208;2022-08-16T00:31:59;5.47;;;4.87;;
18455;SDS011;9357;49.900;8.208;2022-08-16T00:33:36;7.30;;;4.87;;
18455;SDS011;9357;49.900;8.208;2022-08-16T00:35:18;5.47;;;4.97;;
18455;SDS011;9357;49.900;8.208;2022-08-16T00:36:53;5.70;;;5.20;;
18455;SDS011;9357;49.900;8.208;2022-08-16T00:38:28;6.20;;;5.60;;
18455;SDS011;9357;49.900;8.208;2022-08-16T00:40:15;5.40;;;5.00;;
18455;SDS011;9357;49.900;8.208;2022-08-16T00:42:05;5.17;;;4.80;;
18455;SDS011;9357;49.900;8.208;2022-08-16T00:43:40;5.40;;;5.00;;
18455;SDS011;9357;49.900;8.208;2022-08-16T00:45:22;5.53;;;4.90;;
18455;SDS011;9357;49.900;8.208;2022-08-16T00:47:06;4.87;;;4.47;;
18455;SDS011;9357;49.900;8.208;2022-08-16T00:48:47;5.33;;;4.93;;
18455;SDS011;9357;49.900;8.208;2022-08-16T00:50:24;5.50;;;5.00;;
18455;SDS011;9357;49.900;8.208;2022-08-16T00:52:06;5.80;;;5.00;;
18455;SDS011;9357;49.900;8.208;2022-08-16T00:53:59;5.47;;;5.07;;
18455;SDS011;9357;49.900;8.208;2022-08-16T00:55:34;5.20;;;4.70;;
18455;SDS011;9357;49.900;8.208;2022-08-16T00:57:10;5.53;;;4.90;;
18455;SDS011;9357;49.900;8.208;2022-08-16T00:58:44;5.33;;;4.93;;
18455;SDS011;9357;49.900;8.208;2022-08-16T01:00:18;5.20;;;4.80;;
18455;SDS011;9357;49.900;8.208;2022-08-16T01:01:55;5.77;;;5.27;;
18455;SDS011;9357;49.900;8.208;2022-08-16T01:03:28;5.97;;;5.20;;
18455;SDS011;9357;49.900;8.208;2022-08-16T01:05:05;5.93;;;5.43;;
18455;SDS011;9357;49.900;8.208;2022-08-16T01:06:42;5.30;;;4.80;;
18455;SDS011;9357;49.900;8.208;2022-08-16T01:08:32;5.33;;;4.93;;
18455;SDS011;9357;49.900;8.208;2022-08-16T01:10:07;5.63;;;5.13;;
18455;SDS011;9357;49.900;8.208;2022-08-16T01:11:47;5.63;;;5.17;;
18455;SDS011;9357;49.900;8.208;2022-08-16T01:13:26;6.03;;;5.53;;
18455;SDS011;9357;49.900;8.208;2022-08-16T01:15:01;5.63;;;5.23;;
18455;SDS011;9357;49.900;8.208;2022-08-16T01:16:33;5.50;;;5.00;;
18455;SDS011;9357;49.900;8.208;2022-08-16T01:18:07;5.70;;;5.20;;
18455;SDS011;9357;49.900;8.208;2022-08-16T01:20:03;5.00;;;4.40;;
18455;SDS011;9357;49.900;8.208;2022-08-16T01:21:55;5.10;;;4.70;;
18455;SDS011;9357;49.900;8.208;2022-08-16T01:23:57;6.03;;;5.43;;
18455;SDS011;9357;49.900;8.208;2022-08-16T01:25:56;5.67;;;5.13;;
18455;SDS011;9357;49.900;8.208;2022-08-16T01:27:51;5.37;;;4.97;;
18455;SDS011;9357;49.900;8.208;2022-08-16T01:29:27;5.93;;;5.33;;
18455;SDS011;9357;49.900;8.208;2022-08-16T01:31:24;5.70;;;5.20;;
18455;SDS011;9357;49.900;8.208;2022-08-16T01:33:02;5.43;;;5.03;;
18455;SDS011;9357;49.900;8.208;2022-08-16T01:34:45;6.40;;;5.80;;
18455;SDS011;9357;49.900;8.208;2022-08-16T01:36:27;5.83;;;5.37;;
18455;SDS011;9357;49.900;8.208;2022-08-16T01:38:13;6.50;;;5.90;;
18455;SDS011;9357;49.900;8.208;2022-08-16T01:39:51;6.03;;;5.53;;
18455;SDS011;9357;49.900;8.208;2022-08-16T01:41:25;6.00;;;5.50;;
18455;SDS011;9357;49.900;8.208;2022-08-16T01:43:00;5.90;;;5.50;;
18455;SDS011;9357;49.900;8.208;2022-08-16T01:44:36;6.37;;;5.77;;
18455;SDS011;9357;49.900;8.208;2022-08-16T01:46:17;6.33;;;5.77;;
18455;SDS011;9357;49.900;8.208;2022-08-16T01:48:10;6.33;;;5.73;;
18455;SDS011;9357;49.900;8.208;2022-08-16T01:49:50;5.77;;;5.20;;
18455;SDS011;9357;49.900;8.208;2022-08-16T01:51:44;5.90;;;5.40;;
18455;SDS011;9357;49.900;8.208;2022-08-16T01:53:19;5.97;;;5.47;;
18455;SDS011;9357;49.900;8.208;2022-08-16T01:54:55;7.17;;;6.27;;
18455;SDS011;9357;49.900;8.208;2022-08-16T01:56:29;6.23;;;5.50;;
18455;SDS011;9357;49.900;8.208;2022-08-16T01:58:01;6.57;;;5.97;;
18455;SDS011;9357;49.900;8.208;2022-08-16T01:59:35;6.17;;;5.63;;
18455;SDS011;9357;49.900;8.208;2022-08-16T02:01:09;7.17;;;6.43;;
18455;SDS011;9357;49.900;8.208;2022-08-16T02:02:42;6.77;;;6.17;;
18455;SDS011;9357;49.900;8.208;2022-08-16T02:04:22;7.07;;;6.13;;
18455;SDS011;9357;49.900;8.208;2022-08-16T02:06:16;6.60;;;5.90;;
18455;SDS011;9357;49.900;8.208;2022-08-16T02:08:05;6.07;;;5.57;;
18455;SDS011;9357;49.900;8.208;2022-08-16T02:10:00;6.73;;;6.13;;
18455;SDS011;9357;49.900;8.208;2022-08-16T02:11:33;6.47;;;5.87;;
18455;SDS011;9357;49.900;8.208;2022-08-16T02:13:22;7.10;;;6.30;;
18455;SDS011;9357;49.900;8.208;2022-08-16T02:14:58;6.80;;;6.20;;
18455;SDS011;9357;49.900;8.208;2022-08-16T02:16:31;6.97;;;6.33;;
18455;SDS011;9357;49.900;8.208;2022-08-16T02:18:04;6.60;;;6.00;;
18455;SDS011;9357;49.900;8.208;2022-08-16T02:19:42;6.80;;;6.20;;
18455;SDS011;9357;49.900;8.208;2022-08-16T02:21:30;6.87;;;6.27;;
18455;SDS011;9357;49.900;8.208;2022-08-16T02:23:04;6.37;;;5.73;;
18455;SDS011;9357;49.900;8.208;2022-08-16T02:24:38;9.47;;;6.43;;
18455;SDS011;9357;49.900;8.208;2022-08-16T02:26:17;6.53;;;5.93;;
18455;SDS011;9357;49.900;8.208;2022-08-16T02:27:52;6.10;;;5.60;;
18455;SDS011;9357;49.900;8.208;2022-08-16T02:29:24;6.80;;;6.20;;
18455;SDS011;9357;49.900;8.208;2022-08-16T02:31:03;7.53;;;6.87;;
18455;SDS011;9357;49.900;8.208;2022-08-16T02:32:39;7.10;;;6.50;;
18455;SDS011;9357;49.900;8.208;2022-08-16T02:34:21;7.80;;;7.00;;
18455;SDS011;9357;49.900;8.208;2022-08-16T02:36:10;7.13;;;6.43;;
18455;SDS011;9357;49.900;8.208;2022-08-16T02:38:04;7.07;;;6.47;;
18455;SDS011;9357;49.900;8.208;2022-08-16T02:39:38;7.27;;;6.57;;
18455;SDS011;9357;49.900;8.208;2022-08-16T02:41:11;7.20;;;6.50;;
18455;SDS011;9357;49.900;8.208;2022-08-16T02:42:47;7.43;;;6.73;;
18455;SDS011;9357;49.900;8.208;2022-08-16T02:44:21;7.20;;;6.50;;
18455;SDS011;9357;49.900;8.208;2022-08-16T02:45:58;7.10;;;6.40;;
18455;SDS011;9357;49.900;8.208;2022-08-16T02:47:37;7.20;;;6.57;;
18455;SDS011;9357;49.900;8.208;2022-08-16T02:49:30;7.70;;;7.10;;
18455;SDS011;9357;49.900;8.208;2022-08-16T02:51:22;7.60;;;6.90;;
18455;SDS011;9357;49.900;8.208;2022-08-16T02:52:56;8.03;;;7.33;;
18455;SDS011;9357;49.900;8.208;2022-08-16T02:54:28;6.93;;;6.30;;
18455;SDS011;9357;49.900;8.208;2022-08-16T02:56:01;7.43;;;6.83;;
18455;SDS011;9357;49.900;8.208;2022-08-16T02:57:33;7.77;;;7.07;;
18455;SDS011;9357;49.900;8.208;2022-08-16T02:59:13;8.07;;;7.37;;
18455;SDS011;9357;49.900;8.208;2022-08-16T03:00:47;8.37;;;7.50;;
18455;SDS011;9357;49.900;8.208;2022-08-16T03:02:20;8.20;;;7.40;;
18455;SDS011;9357;49.900;8.208;2022-08-16T03:04:02;8.23;;;7.50;;
18455;SDS011;9357;49.900;8.208;2022-08-16T03:05:56;7.73;;;7.03;;
18455;SDS011;9357;49.900;8.208;2022-08-16T03:07:29;7.37;;;6.77;;
18455;SDS011;9357;49.900;8.208;2022-08-16T03:09:07;7.90;;;7.23;;
18455;SDS011;9357;49.900;8.208;2022-08-16T03:10:44;8.50;;;7.60;;
18455;SDS011;9357;49.900;8.208;2022-08-16T03:12:18;8.50;;;7.70;;
18455;SDS011;9357;49.900;8.208;2022-08-16T03:14:00;8.40;;;7.60;;
18455;SDS011;9357;49.900;8.208;2022-08-16T03:15:39;9.43;;;8.50;;
18455;SDS011;9357;49.900;8.208;2022-08-16T03:17:11;8.50;;;7.70;;
18455;SDS011;9357;49.900;8.208;2022-08-16T03:18:46;9.07;;;8.27;;
18455;SDS011;9357;49.900;8.208;2022-08-16T03:20:20;8.37;;;7.27;;
18455;SDS011;9357;49.900;8.208;2022-08-16T03:22:03;8.53;;;7.83;;
18455;SDS011;9357;49.900;8.208;2022-08-16T03:23:36;8.43;;;7.70;;
18455;SDS011;9357;49.900;8.208;2022-08-16T03:25:10;8.33;;;7.53;;
18455;SDS011;9357;49.900;8.208;2022-08-16T03:26:44;9.30;;;8.40;;
18455;SDS011;9357;49.900;8.208;2022-08-16T03:28:21;8.80;;;7.90;;
18455;SDS011;9357;49.900;8.208;2022-08-16T03:29:54;9.10;;;8.30;;
18455;SDS011;9357;49.900;8.208;2022-08-16T03:31:27;8.93;;;8.10;;
18455;SDS011;9357;49.900;8.208;2022-08-16T03:33:10;9.60;;;8.70;;
18455;SDS011;9357;49.900;8.208;2022-08-16T03:34:44;8.67;;;7.80;;
18455;SDS011;9357;49.900;8.208;2022-08-16T03:36:20;9.70;;;8.80;;
18455;SDS011;9357;49.900;8.208;2022-08-16T03:38:07;8.80;;;7.90;;
18455;SDS011;9357;49.900;8.208;2022-08-16T03:40:02;8.40;;;7.70;;
18455;SDS011;9357;49.900;8.208;2022-08-16T03:41:36;9.23;;;8.33;;
18455;SDS011;9357;49.900;8.208;2022-08-16T03:43:21;9.63;;;7.63;;
18455;SDS011;9357;49.900;8.208;2022-08-16T03:45:15;8.07;;;7.10;;
18455;SDS011;9357;49.900;8.208;2022-08-16T03:46:49;9.07;;;8.17;;
18455;SDS011;9357;49.900;8.208;2022-08-16T03:48:21;7.10;;;6.40;;
18455;SDS011;9357;49.900;8.208;2022-08-16T03:50:07;7.83;;;7.07;;
18455;SDS011;9357;49.900;8.208;2022-08-16T03:51:56;8.93;;;8.13;;
18455;SDS011;9357;49.900;8.208;2022-08-16T03:53:29;8.17;;;7.47;;
18455;SDS011;9357;49.900;8.208;2022-08-16T03:55:09;8.00;;;7.20;;
18455;SDS011;9357;49.900;8.208;2022-08-16T03:56:45;6.13;;;5.63;;
18455;SDS011;9357;49.900;8.208;2022-08-16T03:58:28;6.33;;;5.83;;
18455;SDS011;9357;49.900;8.208;2022-08-16T04:00:02;6.87;;;6.27;;
18455;SDS011;9357;49.900;8.208;2022-08-16T04:02:04;8.90;;;7.97;;
18455;SDS011;9357;49.900;8.208;2022-08-16T04:03:52;8.67;;;7.87;;
18455;SDS011;9357;49.900;8.208;2022-08-16T04:05:26;7.83;;;7.10;;
18455;SDS011;9357;49.900;8.208;2022-08-16T04:07:00;8.10;;;7.40;;
18455;SDS011;9357;49.900;8.208;2022-08-16T04:08:36;8.43;;;7.73;;
18455;SDS011;9357;49.900;8.208;2022-08-16T04:10:10;9.53;;;8.70;;
18455;SDS011;9357;49.900;8.208;2022-08-16T04:12:04;9.37;;;8.47;;
18455;SDS011;9357;49.900;8.208;2022-08-16T04:13:41;8.80;;;8.07;;
18455;SDS011;9357;49.900;8.208;2022-08-16T04:15:34;8.87;;;8.07;;
18455;SDS011;9357;49.900;8.208;2022-08-16T04:17:12;7.93;;;7.23;;
18455;SDS011;9357;49.900;8.208;2022-08-16T04:18:45;8.40;;;7.70;;
18455;SDS011;9357;49.900;8.208;2022-08-16T04:20:20;8.27;;;7.47;;
18455;SDS011;9357;49.900;8.208;2022-08-16T04:22:03;9.77;;;8.87;;
18455;SDS011;9357;49.900;8.208;2022-08-16T04:23:39;9.73;;;8.73;;
18455;SDS011;9357;49.900;8.208;2022-08-16T04:25:11;10.20;;;8.87;;
18455;SDS011;9357;49.900;8.208;2022-08-16T04:26:44;9.47;;;8.63;;
18455;SDS011;9357;49.900;8.208;2022-08-16T04:28:17;10.40;;;9.40;;
18455;SDS011;9357;49.900;8.208;2022-08-16T04:30:11;9.27;;;8.47;;
18455;SDS011;9357;49.900;8.208;2022-08-16T04:32:05;10.73;;;9.63;;
18455;SDS011;9357;49.900;8.208;2022-08-16T04:33:41;11.07;;;9.97;;
18455;SDS011;9357;49.900;8.208;2022-08-16T04:35:22;10.03;;;9.07;;
18455;SDS011;9357;49.900;8.208;2022-08-16T04:37:04;8.00;;;7.20;;
18455;SDS011;9357;49.900;8.208;2022-08-16T04:38:37;9.27;;;8.40;;
18455;SDS011;9357;49.900;8.208;2022-08-16T04:40:12;8.30;;;7.50;;
18455;SDS011;9357;49.900;8.208;2022-08-16T04:41:52;8.77;;;7.97;;
18455;SDS011;9357;49.900;8.208;2022-08-16T04:43:27;9.03;;;8.10;;
18455;SDS011;9357;49.900;8.208;2022-08-16T04:45:00;10.30;;;9.33;;
18455;SDS011;9357;49.900;8.208;2022-08-16T04:46:34;9.43;;;7.80;;
18455;SDS011;9357;49.900;8.208;2022-08-16T04:48:27;9.10;;;8.10;;
18455;SDS011;9357;49.900;8.208;2022-08-16T04:50:07;7.43;;;6.83;;
18455;SDS011;9357;49.900;8.208;2022-08-16T04:51:44;9.00;;;8.03;;
18455;SDS011;9357;49.900;8.208;2022-08-16T04:53:25;9.90;;;8.90;;
18455;SDS011;9357;49.900;8.208;2022-08-16T04:54:59;9.60;;;8.80;;
18455;SDS011;9357;49.900;8.208;2022-08-16T04:56:33;9.50;;;8.43;;
18455;SDS011;9357;49.900;8.208;2022-08-16T04:58:16;10.40;;;9.33;;
18455;SDS011;9357;49.900;8.208;2022-08-16T05:00:11;8.90;;;8.10;;
18455;SDS011;9357;49.900;8.208;2022-08-16T05:02:03;8.50;;;7.70;;
18455;SDS011;9357;49.900;8.208;2022-08-16T05:03:56;9.33;;;8.37;;
18455;SDS011;9357;49.900;8.208;2022-08-16T05:05:33;10.40;;;9.33;;
18455;SDS011;9357;49.900;8.208;2022-08-16T05:07:15;9.33;;;8.53;;
18455;SDS011;9357;49.900;8.208;2022-08-16T05:08:50;9.63;;;8.83;;
18455;SDS011;9357;49.900;8.208;2022-08-16T05:10:27;9.77;;;8.70;;
18455;SDS011;9357;49.900;8.208;2022-08-16T05:12:00;10.13;;;8.77;;
18455;SDS011;9357;49.900;8.208;2022-08-16T05:13:33;10.80;;;9.73;;
18455;SDS011;9357;49.900;8.208;2022-08-16T05:15:12;8.70;;;7.80;;
18455;SDS011;9357;49.900;8.208;2022-08-16T05:16:45;9.93;;;8.83;;
18455;SDS011;9357;49.900;8.208;2022-08-16T05:18:22;8.57;;;7.80;;
18455;SDS011;9357;49.900;8.208;2022-08-16T05:19:57;9.37;;;8.47;;
18455;SDS011;9357;49.900;8.208;2022-08-16T05:21:52;11.60;;;9.27;;
18455;SDS011;9357;49.900;8.208;2022-08-16T05:23:25;10.13;;;9.23;;
18455;SDS011;9357;49.900;8.208;2022-08-16T05:25:02;10.33;;;9.33;;
18455;SDS011;9357;49.900;8.208;2022-08-16T05:26:39;8.60;;;7.90;;
18455;SDS011;9357;49.900;8.208;2022-08-16T05:28:21;9.73;;;8.77;;
18455;SDS011;9357;49.900;8.208;2022-08-16T05:30:08;11.13;;;10.03;;
18455;SDS011;9357;49.900;8.208;2022-08-16T05:32:03;10.43;;;9.43;;
18455;SDS011;9357;49.900;8.208;2022-08-16T05:33:57;10.50;;;9.43;;
18455;SDS011;9357;49.900;8.208;2022-08-16T05:35:33;10.80;;;9.70;;
18455;SDS011;9357;49.900;8.208;2022-08-16T05:37:09;11.67;;;10.27;;
18455;SDS011;9357;49.900;8.208;2022-08-16T05:38:46;9.33;;;8.43;;
18455;SDS011;9357;49.900;8.208;2022-08-16T05:40:20;10.97;;;9.87;;
18455;SDS011;9357;49.900;8.208;2022-08-16T05:41:52;10.43;;;9.37;;
18455;SDS011;9357;49.900;8.208;2022-08-16T05:43:26;11.23;;;10.03;;
18455;SDS011;9357;49.900;8.208;2022-08-16T05:45:13;12.43;;;11.23;;
18455;SDS011;9357;49.900;8.208;2022-08-16T05:46:54;12.97;;;11.73;;
18455;SDS011;9357;49.900;8.208;2022-08-16T05:48:30;12.00;;;10.87;;
18455;SDS011;9357;49.900;8.208;2022-08-16T05:50:06;11.47;;;10.37;;
18455;SDS011;9357;49.900;8.208;2022-08-16T05:51:49;10.83;;;9.80;;
18455;SDS011;9357;49.900;8.208;2022-08-16T05:53:24;11.33;;;10.20;;
18455;SDS011;9357;49.900;8.208;2022-08-16T05:54:57;12.20;;;11.10;;
18455;SDS011;9357;49.900;8.208;2022-08-16T05:56:32;11.10;;;10.00;;
18455;SDS011;9357;49.900;8.208;2022-08-16T05:58:08;11.53;;;10.37;;
18455;SDS011;9357;49.900;8.208;2022-08-16T06:00:01;9.07;;;8.20;;
18455;SDS011;9357;49.900;8.208;2022-08-16T06:01:40;10.40;;;9.50;;
18455;SDS011;9357;49.900;8.208;2022-08-16T06:03:14;12.37;;;11.10;;
18455;SDS011;9357;49.900;8.208;2022-08-16T06:04:48;9.40;;;8.50;;
18455;SDS011;9357;49.900;8.208;2022-08-16T06:06:24;12.40;;;9.63;;
18455;SDS011;9357;49.900;8.208;2022-08-16T06:07:59;11.50;;;10.40;;
18455;SDS011;9357;49.900;8.208;2022-08-16T06:09:34;12.93;;;11.73;;
18455;SDS011;9357;49.900;8.208;2022-08-16T06:11:14;10.07;;;9.07;;
18455;SDS011;9357;49.900;8.208;2022-08-16T06:12:49;12.33;;;11.17;;
18455;SDS011;9357;49.900;8.208;2022-08-16T06:14:26;12.10;;;10.90;;
18455;SDS011;9357;49.900;8.208;2022-08-16T06:15:59;13.00;;;11.47;;
18455;SDS011;9357;49.900;8.208;2022-08-16T06:17:32;11.80;;;10.70;;
18455;SDS011;9357;49.900;8.208;2022-08-16T06:19:14;11.83;;;10.63;;
18455;SDS011;9357;49.900;8.208;2022-08-16T06:20:47;14.53;;;12.43;;
18455;SDS011;9357;49.900;8.208;2022-08-16T06:22:26;12.50;;;11.27;;
18455;SDS011;9357;49.900;8.208;2022-08-16T06:24:09;11.50;;;10.40;;
18455;SDS011;9357;49.900;8.208;2022-08-16T06:26:04;10.40;;;9.40;;
18455;SDS011;9357;49.900;8.208;2022-08-16T06:27:38;11.97;;;10.20;;
18455;SDS011;9357;49.900;8.208;2022-08-16T06:29:11;10.70;;;9.60;;
18455;SDS011;9357;49.900;8.208;2022-08-16T06:30:44;9.20;;;8.30;;
18455;SDS011;9357;49.900;8.208;2022-08-16T06:32:17;11.10;;;10.00;;
18455;SDS011;9357;49.900;8.208;2022-08-16T06:33:58;12.50;;;11.13;;
18455;SDS011;9357;49.900;8.208;2022-08-16T06:35:31;12.70;;;11.50;;
18455;SDS011;9357;49.900;8.208;2022-08-16T06:37:11;10.57;;;9.57;;
18455;SDS011;9357;49.900;8.208;2022-08-16T06:38:44;11.43;;;10.37;;
18455;SDS011;9357;49.900;8.208;2022-08-16T06:40:26;10.33;;;9.43;;
18455;SDS011;9357;49.900;8.208;2022-08-16T06:42:05;11.93;;;10.83;;
18455;SDS011;9357;49.900;8.208;2022-08-16T06:43:38;11.00;;;9.87;;
18455;SDS011;9357;49.900;8.208;2022-08-16T06:45:11;12.30;;;10.90;;
18455;SDS011;9357;49.900;8.208;2022-08-16T06:46:45;12.27;;;10.97;;
18455;SDS011;9357;49.900;8.208;2022-08-16T06:48:21;12.30;;;11.20;;
18455;SDS011;9357;49.900;8.208;2022-08-16T06:50:04;11.60;;;10.50;;
18455;SDS011;9357;49.900;8.208;2022-08-16T06:51:38;10.27;;;9.27;;
18455;SDS011;9357;49.900;8.208;2022-08-16T06:53:18;12.53;;;11.23;;
18455;SDS011;9357;49.900;8.208;2022-08-16T06:54:51;11.40;;;10.30;;
18455;SDS011;9357;49.900;8.208;2022-08-16T06:56:24;11.80;;;10.70;;
18455;SDS011;9357;49.900;8.208;2022-08-16T06:57:58;11.33;;;10.30;;
18455;SDS011;9357;49.900;8.208;2022-08-16T06:59:38;14.53;;;10.40;;
18455;SDS011;9357;49.900;8.208;2022-08-16T07:01:28;12.50;;;11.30;;
18455;SDS011;9357;49.900;8.208;2022-08-16T07:03:16;12.07;;;10.60;;
18455;SDS011;9357;49.900;8.208;2022-08-16T07:05:03;12.83;;;11.57;;
18455;SDS011;9357;49.900;8.208;2022-08-16T07:06:45;11.40;;;10.30;;
18455;SDS011;9357;49.900;8.208;2022-08-16T07:08:21;10.87;;;9.77;;
18455;SDS011;9357;49.900;8.208;2022-08-16T07:09:57;11.17;;;10.07;;
18455;SDS011;9357;49.900;8.208;2022-08-16T07:11:38;10.03;;;9.10;;
18455;SDS011;9357;49.900;8.208;2022-08-16T07:13:23;11.40;;;10.37;;
18455;SDS011;9357;49.900;8.208;2022-08-16T07:15:16;9.80;;;8.90;;
18455;SDS011;9357;49.900;8.208;2022-08-16T07:16:55;9.90;;;8.90;;
18455;SDS011;9357;49.900;8.208;2022-08-16T07:18:29;12.37;;;9.83;;
18455;SDS011;9357;49.900;8.208;2022-08-16T07:20:03;10.33;;;9.37;;
18455;SDS011;9357;49.900;8.208;2022-08-16T07:21:57;10.50;;;9.50;;
18455;SDS011;9357;49.900;8.208;2022-08-16T07:23:34;10.57;;;9.57;;
18455;SDS011;9357;49.900;8.208;2022-08-16T07:25:10;10.00;;;9.00;;
18455;SDS011;9357;49.900;8.208;2022-08-16T07:26:47;10.83;;;9.73;;
18455;SDS011;9357;49.900;8.208;2022-08-16T07:28:20;10.37;;;9.37;;
18455;SDS011;9357;49.900;8.208;2022-08-16T07:29:56;10.30;;;9.30;;
18455;SDS011;9357;49.900;8.208;2022-08-16T07:31:29;11.43;;;10.17;;
18455;SDS011;9357;49.900;8.208;2022-08-16T07:33:08;10.67;;;9.57;;
18455;SDS011;9357;49.900;8.208;2022-08-16T07:34:47;9.07;;;8.10;;
18455;SDS011;9357;49.900;8.208;2022-08-16T07:36:22;11.00;;;9.90;;
18455;SDS011;9357;49.900;8.208;2022-08-16T07:37:55;9.77;;;8.87;;
18455;SDS011;9357;49.900;8.208;2022-08-16T07:39:29;9.57;;;8.70;;
18455;SDS011;9357;49.900;8.208;2022-08-16T07:41:04;10.00;;;9.00;;
18455;SDS011;9357;49.900;8.208;2022-08-16T07:42:41;9.37;;;8.50;;
18455;SDS011;9357;49.900;8.208;2022-08-16T07:44:15;9.40;;;8.50;;
18455;SDS011;9357;49.900;8.208;2022-08-16T07:45:49;9.37;;;8.37;;
18455;SDS011;9357;49.900;8.208;2022-08-16T07:47:23;10.30;;;9.30;;
18455;SDS011;9357;49.900;8.208;2022-08-16T07:49:02;9.43;;;8.53;;
18455;SDS011;9357;49.900;8.208;2022-08-16T07:50:42;8.70;;;8.00;;
18455;SDS011;9357;49.900;8.208;2022-08-16T07:52:28;9.97;;;9.07;;
18455;SDS011;9357;49.900;8.208;2022-08-16T07:54:03;9.27;;;8.47;;
18455;SDS011;9357;49.900;8.208;2022-08-16T07:55:40;8.73;;;7.83;;
18455;SDS011;9357;49.900;8.208;2022-08-16T07:57:18;8.27;;;7.57;;
18455;SDS011;9357;49.900;8.208;2022-08-16T07:58:54;8.30;;;7.50;;
18455;SDS011;9357;49.900;8.208;2022-08-16T08:00:28;8.70;;;7.80;;
18455;SDS011;9357;49.900;8.208;2022-08-16T08:02:03;8.60;;;7.67;;
18455;SDS011;9357;49.900;8.208;2022-08-16T08:03:42;8.83;;;7.97;;
18455;SDS011;9357;49.900;8.208;2022-08-16T08:05:19;9.63;;;7.73;;
18455;SDS011;9357;49.900;8.208;2022-08-16T08:07:05;8.93;;;8.13;;
18455;SDS011;9357;49.900;8.208;2022-08-16T08:08:39;8.67;;;7.97;;
18455;SDS011;9357;49.900;8.208;2022-08-16T08:10:22;7.80;;;7.10;;
18455;SDS011;9357;49.900;8.208;2022-08-16T08:11:59;8.40;;;7.60;;
18455;SDS011;9357;49.900;8.208;2022-08-16T08:13:35;8.80;;;7.90;;
18455;SDS011;9357;49.900;8.208;2022-08-16T08:15:13;7.90;;;7.20;;
18455;SDS011;9357;49.900;8.208;2022-08-16T08:16:55;9.07;;;8.13;;
18455;SDS011;9357;49.900;8.208;2022-08-16T08:18:33;9.60;;;8.67;;
18455;SDS011;9357;49.900;8.208;2022-08-16T08:20:06;9.13;;;8.23;;
18455;SDS011;9357;49.900;8.208;2022-08-16T08:21:41;8.50;;;7.70;;
18455;SDS011;9357;49.900;8.208;2022-08-16T08:23:32;8.77;;;7.63;;
18455;SDS011;9357;49.900;8.208;2022-08-16T08:25:12;8.10;;;7.40;;
18455;SDS011;9357;49.900;8.208;2022-08-16T08:26:46;10.03;;;9.03;;
18455;SDS011;9357;49.900;8.208;2022-08-16T08:28:20;9.43;;;8.63;;
18455;SDS011;9357;49.900;8.208;2022-08-16T08:29:55;8.50;;;7.70;;
18455;SDS011;9357;49.900;8.208;2022-08-16T08:31:49;10.00;;;9.10;;
18455;SDS011;9357;49.900;8.208;2022-08-16T08:33:23;9.30;;;8.50;;
18455;SDS011;9357;49.900;8.208;2022-08-16T08:34:59;9.77;;;8.77;;
18455;SDS011;9357;49.900;8.208;2022-08-16T08:36:34;8.63;;;7.73;;
18455;SDS011;9357;49.900;8.208;2022-08-16T08:38:07;9.13;;;8.23;;
18455;SDS011;9357;49.900;8.208;2022-08-16T08:39:40;7.90;;;7.30;;
18455;SDS011;9357;49.900;8.208;2022-08-16T08:41:25;7.63;;;7.03;;
18455;SDS011;9357;49.900;8.208;2022-08-16T08:43:00;8.90;;;8.00;;
18455;SDS011;9357;49.900;8.208;2022-08-16T08:44:48;8.30;;;7.60;;
18455;SDS011;9357;49.900;8.208;2022-08-16T08:46:20;7.73;;;6.93;;
18455;SDS011;9357;49.900;8.208;2022-08-16T08:47:55;8.30;;;7.50;;
18455;SDS011;9357;49.900;8.208;2022-08-16T08:49:29;8.53;;;7.80;;
18455;SDS011;9357;49.900;8.208;2022-08-16T08:51:22;8.57;;;7.77;;
18455;SDS011;9357;49.900;8.208;2022-08-16T08:52:57;8.07;;;7.40;;
18455;SDS011;9357;49.900;8.208;2022-08-16T08:54:32;8.88;;;7.88;;
18455;SDS011;9357;49.900;8.208;2022-08-16T08:56:08;7.78;;;7.00;;
18455;SDS011;9357;49.900;8.208;2022-08-16T08:57:55;9.43;;;8.50;;
18455;SDS011;9357;49.900;8.208;2022-08-16T08:59:28;8.88;;;8.18;;
18455;SDS011;9357;49.900;8.208;2022-08-16T09:01:02;10.55;;;9.65;;
18455;SDS011;9357;49.900;8.208;2022-08-16T09:02:40;10.13;;;9.15;;
18455;SDS011;9357;49.900;8.208;2022-08-16T09:04:15;9.95;;;9.15;;
18455;SDS011;9357;49.900;8.208;2022-08-16T09:05:49;8.53;;;7.73;;
18455;SDS011;9357;49.900;8.208;2022-08-16T09:07:23;8.47;;;7.77;;
18455;SDS011;9357;49.900;8.208;2022-08-16T09:08:57;9.40;;;7.93;;
18455;SDS011;9357;49.900;8.208;2022-08-16T09:10:30;8.77;;;8.07;;
18455;SDS011;9357;49.900;8.208;2022-08-16T09:12:09;9.07;;;8.17;;
18455;SDS011;9357;49.900;8.208;2022-08-16T09:14:02;7.70;;;6.87;;
18455;SDS011;9357;49.900;8.208;2022-08-16T09:15:36;9.23;;;8.43;;
18455;SDS011;9357;49.900;8.208;2022-08-16T09:17:09;9.90;;;8.90;;
18455;SDS011;9357;49.900;8.208;2022-08-16T09:19:03;9.40;;;8.53;;
18455;SDS011;9357;49.900;8.208;2022-08-16T09:20:41;7.40;;;6.70;;
18455;SDS011;9357;49.900;8.208;2022-08-16T09:22:31;7.90;;;7.20;;
18455;SDS011;9357;49.900;8.208;2022-08-16T09:24:05;8.97;;;8.27;;
18455;SDS011;9357;49.900;8.208;2022-08-16T09:25:41;8.10;;;7.47;;
18455;SDS011;9357;49.900;8.208;2022-08-16T09:27:14;7.53;;;6.93;;
18455;SDS011;9357;49.900;8.208;2022-08-16T09:28:49;7.43;;;6.73;;
18455;SDS011;9357;49.900;8.208;2022-08-16T09:30:42;7.57;;;6.90;;
18455;SDS011;9357;49.900;8.208;2022-08-16T09:32:15;7.07;;;6.43;;
18455;SDS011;9357;49.900;8.208;2022-08-16T09:33:59;7.07;;;6.57;;
18455;SDS011;9357;49.900;8.208;2022-08-16T09:35:33;7.87;;;7.07;;
18455;SDS011;9357;49.900;8.208;2022-08-16T09:37:09;7.33;;;6.63;;
18455;SDS011;9357;49.900;8.208;2022-08-16T09:38:49;7.10;;;6.50;;
18455;SDS011;9357;49.900;8.208;2022-08-16T09:40:30;7.67;;;7.00;;
18455;SDS011;9357;49.900;8.208;2022-08-16T09:42:13;7.43;;;6.70;;
18455;SDS011;9357;49.900;8.208;2022-08-16T09:43:49;6.50;;;5.80;;
18455;SDS011;9357;49.900;8.208;2022-08-16T09:45:31;7.55;;;6.88;;
18455;SDS011;9357;49.900;8.208;2022-08-16T09:47:09;7.00;;;6.33;;
18455;SDS011;9357;49.900;8.208;2022-08-16T09:48:42;6.53;;;5.88;;
18455;SDS011;9357;49.900;8.208;2022-08-16T09:50:21;7.23;;;6.53;;
18455;SDS011;9357;49.900;8.208;2022-08-16T09:52:07;7.30;;;6.40;;
18455;SDS011;9357;49.900;8.208;2022-08-16T09:53:40;6.53;;;5.93;;
18455;SDS011;9357;49.900;8.208;2022-08-16T09:55:15;6.37;;;5.77;;
18455;SDS011;9357;49.900;8.208;2022-08-16T09:56:48;6.70;;;6.20;;
18455;SDS011;9357;49.900;8.208;2022-08-16T09:58:25;6.60;;;6.03;;
18455;SDS011;9357;49.900;8.208;2022-08-16T10:00:18;6.33;;;5.73;;
18455;SDS011;9357;49.900;8.208;2022-08-16T10:02:11;6.20;;;5.70;;